sensor_id;sensor_type;location;lat;lon;timestamp;P1;durP1;ratioP1;P2;durP2;ratioP2
43580;SDS011;29175;51.030;4.606;2024-03-07T00:01:54;61.50;;;25.63;;
43580;SDS011;29175;51.030;4.606;2024-03-07T00:04:21;65.65;;;28.23;;
43580;SDS011;29175;51.030;4.606;2024-03-07T00:06:49;87.72;;;32.80;;
43580;SDS011;29175;51.030;4.606;2024-03-07T00:09:14;86.22;;;31.52;;
43580;SDS011;29175;51.030;4.606;2024-03-07T00:11:43;96.43;;;36.13;;
43580;SDS011;29175;51.030;4.606;2024-03-07T00:14:09;87.10;;;31.48;;
43580;SDS011;29175;51.030;4.606;2024-03-07T00:16:35;79.35;;;30.70;;
43580;SDS011;29175;51.030;4.606;2024-03-07T00:19:02;93.63;;;34.75;;
43580;SDS011;29175;51.030;4.606;2024-03-07T00:21:29;97.45;;;36.08;;
43580;SDS011;29175;51.030;4.606;2024-03-07T00:23:55;106.82;;;38.55;;
43580;SDS011;29175;51.030;4.606;2024-03-07T00:26:23;96.25;;;38.63;;
43580;SDS011;29175;51.030;4.606;2024-03-07T00:31:19;89.03;;;34.45;;
43580;SDS011;29175;51.030;4.606;2024-03-07T00:33:44;88.10;;;33.92;;
43580;SDS011;29175;51.030;4.606;2024-03-07T00:36:10;95.47;;;35.72;;
43580;SDS011;29175;51.030;4.606;2024-03-07T00:38:37;109.70;;;39.35;;
43580;SDS011;29175;51.030;4.606;2024-03-07T00:41:03;104.60;;;37.53;;
43580;SDS011;29175;51.030;4.606;2024-03-07T00:43:30;77.07;;;31.00;;
43580;SDS011;29175;51.030;4.606;2024-03-07T00:48:26;110.30;;;37.42;;
43580;SDS011;29175;51.030;4.606;2024-03-07T00:50:51;108.78;;;38.38;;
43580;SDS011;29175;51.030;4.606;2024-03-07T00:53:18;99.55;;;35.17;;
43580;SDS011;29175;51.030;4.606;2024-03-07T00:55:45;82.13;;;31.02;;
43580;SDS011;29175;51.030;4.606;2024-03-07T00:58:13;80.22;;;30.55;;
43580;SDS011;29175;51.030;4.606;2024-03-07T01:00:38;80.97;;;31.45;;
43580;SDS011;29175;51.030;4.606;2024-03-07T01:05:38;99.63;;;35.60;;
43580;SDS011;29175;51.030;4.606;2024-03-07T01:08:05;91.32;;;33.70;;
43580;SDS011;29175;51.030;4.606;2024-03-07T01:10:33;84.85;;;32.47;;
43580;SDS011;29175;51.030;4.606;2024-03-07T01:12:58;103.35;;;37.40;;
43580;SDS011;29175;51.030;4.606;2024-03-07T01:15:27;103.70;;;38.67;;
43580;SDS011;29175;51.030;4.606;2024-03-07T01:17:55;89.20;;;33.10;;
43580;SDS011;29175;51.030;4.606;2024-03-07T01:20:21;96.00;;;35.00;;
43580;SDS011;29175;51.030;4.606;2024-03-07T01:22:49;122.18;;;41.05;;
43580;SDS011;29175;51.030;4.606;2024-03-07T01:25:17;101.75;;;35.20;;
43580;SDS011;29175;51.030;4.606;2024-03-07T01:27:44;78.35;;;30.60;;
43580;SDS011;29175;51.030;4.606;2024-03-07T01:30:13;81.43;;;31.50;;
43580;SDS011;29175;51.030;4.606;2024-03-07T01:32:39;90.10;;;34.30;;
43580;SDS011;29175;51.030;4.606;2024-03-07T01:35:05;85.90;;;33.00;;
43580;SDS011;29175;51.030;4.606;2024-03-07T01:37:35;84.70;;;30.10;;
43580;SDS011;29175;51.030;4.606;2024-03-07T01:40:03;107.38;;;36.05;;
43580;SDS011;29175;51.030;4.606;2024-03-07T01:42:30;94.18;;;36.00;;
43580;SDS011;29175;51.030;4.606;2024-03-07T01:44:56;95.32;;;34.47;;
43580;SDS011;29175;51.030;4.606;2024-03-07T01:47:23;81.22;;;30.77;;
43580;SDS011;29175;51.030;4.606;2024-03-07T01:49:50;83.95;;;32.63;;
43580;SDS011;29175;51.030;4.606;2024-03-07T01:52:17;93.43;;;32.55;;
43580;SDS011;29175;51.030;4.606;2024-03-07T01:54:49;88.22;;;32.45;;
43580;SDS011;29175;51.030;4.606;2024-03-07T01:57:17;83.72;;;33.58;;
43580;SDS011;29175;51.030;4.606;2024-03-07T01:59:44;83.43;;;32.10;;
43580;SDS011;29175;51.030;4.606;2024-03-07T02:02:10;81.57;;;29.30;;
43580;SDS011;29175;51.030;4.606;2024-03-07T02:04:37;108.95;;;37.53;;
43580;SDS011;29175;51.030;4.606;2024-03-07T02:07:02;108.57;;;37.95;;
43580;SDS011;29175;51.030;4.606;2024-03-07T02:09:29;97.78;;;35.97;;
43580;SDS011;29175;51.030;4.606;2024-03-07T02:11:56;100.25;;;34.63;;
43580;SDS011;29175;51.030;4.606;2024-03-07T02:14:22;105.63;;;35.58;;
43580;SDS011;29175;51.030;4.606;2024-03-07T02:16:47;98.75;;;36.17;;
43580;SDS011;29175;51.030;4.606;2024-03-07T02:21:44;93.70;;;34.03;;
43580;SDS011;29175;51.030;4.606;2024-03-07T02:24:10;102.45;;;35.85;;
43580;SDS011;29175;51.030;4.606;2024-03-07T02:26:37;85.57;;;31.58;;
43580;SDS011;29175;51.030;4.606;2024-03-07T02:29:06;107.13;;;36.55;;
43580;SDS011;29175;51.030;4.606;2024-03-07T02:31:32;85.20;;;34.30;;
43580;SDS011;29175;51.030;4.606;2024-03-07T02:34:02;105.43;;;37.85;;
43580;SDS011;29175;51.030;4.606;2024-03-07T02:36:29;95.93;;;33.55;;
43580;SDS011;29175;51.030;4.606;2024-03-07T02:38:55;97.07;;;34.70;;
43580;SDS011;29175;51.030;4.606;2024-03-07T02:41:21;103.97;;;37.03;;
43580;SDS011;29175;51.030;4.606;2024-03-07T02:43:49;110.80;;;38.83;;
43580;SDS011;29175;51.030;4.606;2024-03-07T02:48:45;108.72;;;36.78;;
43580;SDS011;29175;51.030;4.606;2024-03-07T02:51:13;93.82;;;34.83;;
43580;SDS011;29175;51.030;4.606;2024-03-07T02:53:39;95.93;;;35.20;;
43580;SDS011;29175;51.030;4.606;2024-03-07T02:56:05;103.65;;;34.85;;
43580;SDS011;29175;51.030;4.606;2024-03-07T02:58:36;97.50;;;35.13;;
43580;SDS011;29175;51.030;4.606;2024-03-07T03:03:30;102.03;;;35.97;;
43580;SDS011;29175;51.030;4.606;2024-03-07T03:05:59;103.75;;;34.72;;
43580;SDS011;29175;51.030;4.606;2024-03-07T03:08:26;105.10;;;36.63;;
43580;SDS011;29175;51.030;4.606;2024-03-07T03:10:53;100.75;;;35.15;;
43580;SDS011;29175;51.030;4.606;2024-03-07T03:13:20;107.78;;;38.38;;
43580;SDS011;29175;51.030;4.606;2024-03-07T03:15:48;105.97;;;36.05;;
43580;SDS011;29175;51.030;4.606;2024-03-07T03:18:14;122.03;;;40.65;;
43580;SDS011;29175;51.030;4.606;2024-03-07T03:20:41;112.90;;;36.85;;
43580;SDS011;29175;51.030;4.606;2024-03-07T03:23:11;138.13;;;43.97;;
43580;SDS011;29175;51.030;4.606;2024-03-07T03:28:08;108.10;;;36.38;;
43580;SDS011;29175;51.030;4.606;2024-03-07T03:30:38;114.97;;;36.83;;
43580;SDS011;29175;51.030;4.606;2024-03-07T03:35:37;107.10;;;38.55;;
43580;SDS011;29175;51.030;4.606;2024-03-07T03:38:03;111.65;;;38.17;;
43580;SDS011;29175;51.030;4.606;2024-03-07T03:40:31;122.72;;;38.78;;
43580;SDS011;29175;51.030;4.606;2024-03-07T03:42:59;111.68;;;37.88;;
43580;SDS011;29175;51.030;4.606;2024-03-07T03:45:25;117.15;;;37.17;;
43580;SDS011;29175;51.030;4.606;2024-03-07T03:47:53;116.25;;;39.42;;
43580;SDS011;29175;51.030;4.606;2024-03-07T03:50:20;111.30;;;38.20;;
43580;SDS011;29175;51.030;4.606;2024-03-07T03:55:19;134.18;;;40.88;;
43580;SDS011;29175;51.030;4.606;2024-03-07T03:57:45;127.35;;;41.17;;
43580;SDS011;29175;51.030;4.606;2024-03-07T04:00:14;128.68;;;42.60;;
43580;SDS011;29175;51.030;4.606;2024-03-07T04:02:44;143.02;;;43.58;;
43580;SDS011;29175;51.030;4.606;2024-03-07T04:05:13;128.57;;;41.80;;
43580;SDS011;29175;51.030;4.606;2024-03-07T04:07:42;142.43;;;44.85;;
43580;SDS011;29175;51.030;4.606;2024-03-07T04:10:10;136.75;;;44.00;;
43580;SDS011;29175;51.030;4.606;2024-03-07T04:12:39;146.88;;;45.53;;
43580;SDS011;29175;51.030;4.606;2024-03-07T04:15:14;154.50;;;47.78;;
43580;SDS011;29175;51.030;4.606;2024-03-07T04:17:44;147.93;;;45.70;;
43580;SDS011;29175;51.030;4.606;2024-03-07T04:20:15;157.40;;;49.80;;
43580;SDS011;29175;51.030;4.606;2024-03-07T04:22:43;170.55;;;48.70;;
43580;SDS011;29175;51.030;4.606;2024-03-07T04:25:11;158.82;;;48.88;;
43580;SDS011;29175;51.030;4.606;2024-03-07T04:27:38;165.85;;;49.97;;
43580;SDS011;29175;51.030;4.606;2024-03-07T04:30:05;176.70;;;50.08;;
43580;SDS011;29175;51.030;4.606;2024-03-07T04:35:02;171.73;;;48.65;;
43580;SDS011;29175;51.030;4.606;2024-03-07T04:40:05;185.10;;;50.45;;
43580;SDS011;29175;51.030;4.606;2024-03-07T04:42:41;176.55;;;49.17;;
43580;SDS011;29175;51.030;4.606;2024-03-07T04:45:08;183.90;;;50.70;;
43580;SDS011;29175;51.030;4.606;2024-03-07T04:47:44;178.27;;;51.22;;
43580;SDS011;29175;51.030;4.606;2024-03-07T04:50:11;171.70;;;50.40;;
43580;SDS011;29175;51.030;4.606;2024-03-07T04:52:43;193.32;;;54.30;;
43580;SDS011;29175;51.030;4.606;2024-03-07T04:57:41;204.73;;;53.30;;
43580;SDS011;29175;51.030;4.606;2024-03-07T05:00:07;187.85;;;52.47;;
43580;SDS011;29175;51.030;4.606;2024-03-07T05:02:42;201.88;;;51.58;;
43580;SDS011;29175;51.030;4.606;2024-03-07T05:05:10;191.45;;;51.30;;
43580;SDS011;29175;51.030;4.606;2024-03-07T05:07:40;195.82;;;54.03;;
43580;SDS011;29175;51.030;4.606;2024-03-07T05:10:07;192.63;;;53.53;;
43580;SDS011;29175;51.030;4.606;2024-03-07T05:12:33;216.18;;;53.97;;
43580;SDS011;29175;51.030;4.606;2024-03-07T05:14:59;198.05;;;52.25;;
43580;SDS011;29175;51.030;4.606;2024-03-07T05:17:25;194.48;;;53.22;;
43580;SDS011;29175;51.030;4.606;2024-03-07T05:19:52;220.23;;;54.78;;
43580;SDS011;29175;51.030;4.606;2024-03-07T05:22:18;228.15;;;55.92;;
43580;SDS011;29175;51.030;4.606;2024-03-07T05:24:47;227.52;;;60.78;;
43580;SDS011;29175;51.030;4.606;2024-03-07T05:27:16;228.85;;;58.83;;
43580;SDS011;29175;51.030;4.606;2024-03-07T05:29:42;249.45;;;58.42;;
43580;SDS011;29175;51.030;4.606;2024-03-07T05:32:21;249.15;;;59.78;;
43580;SDS011;29175;51.030;4.606;2024-03-07T05:34:50;255.10;;;61.60;;
43580;SDS011;29175;51.030;4.606;2024-03-07T05:37:19;249.32;;;60.92;;
43580;SDS011;29175;51.030;4.606;2024-03-07T05:39:49;319.73;;;67.28;;
43580;SDS011;29175;51.030;4.606;2024-03-07T05:42:16;282.10;;;61.15;;
43580;SDS011;29175;51.030;4.606;2024-03-07T05:44:43;278.05;;;62.13;;
43580;SDS011;29175;51.030;4.606;2024-03-07T05:47:12;275.67;;;63.85;;
43580;SDS011;29175;51.030;4.606;2024-03-07T05:49:40;298.45;;;63.25;;
43580;SDS011;29175;51.030;4.606;2024-03-07T05:52:06;311.42;;;67.30;;
43580;SDS011;29175;51.030;4.606;2024-03-07T05:54:33;301.05;;;66.65;;
43580;SDS011;29175;51.030;4.606;2024-03-07T05:56:59;298.90;;;63.33;;
43580;SDS011;29175;51.030;4.606;2024-03-07T05:59:26;272.27;;;59.72;;
43580;SDS011;29175;51.030;4.606;2024-03-07T06:01:53;268.55;;;62.75;;
43580;SDS011;29175;51.030;4.606;2024-03-07T06:04:21;315.33;;;63.85;;
43580;SDS011;29175;51.030;4.606;2024-03-07T06:06:48;282.75;;;63.92;;
43580;SDS011;29175;51.030;4.606;2024-03-07T06:09:16;300.95;;;67.38;;
43580;SDS011;29175;51.030;4.606;2024-03-07T06:11:46;310.17;;;66.28;;
43580;SDS011;29175;51.030;4.606;2024-03-07T06:14:14;309.33;;;67.15;;
43580;SDS011;29175;51.030;4.606;2024-03-07T06:16:41;322.17;;;68.90;;
43580;SDS011;29175;51.030;4.606;2024-03-07T06:19:08;305.13;;;67.32;;
43580;SDS011;29175;51.030;4.606;2024-03-07T06:21:35;307.23;;;67.97;;
43580;SDS011;29175;51.030;4.606;2024-03-07T06:24:03;275.65;;;64.07;;
43580;SDS011;29175;51.030;4.606;2024-03-07T06:26:33;336.48;;;69.15;;
43580;SDS011;29175;51.030;4.606;2024-03-07T06:31:43;317.75;;;67.28;;
43580;SDS011;29175;51.030;4.606;2024-03-07T06:34:13;261.83;;;60.83;;
43580;SDS011;29175;51.030;4.606;2024-03-07T06:36:39;260.33;;;58.78;;
43580;SDS011;29175;51.030;4.606;2024-03-07T06:39:08;383.05;;;64.60;;
43580;SDS011;29175;51.030;4.606;2024-03-07T06:41:38;303.00;;;62.67;;
43580;SDS011;29175;51.030;4.606;2024-03-07T06:44:06;262.27;;;57.97;;
43580;SDS011;29175;51.030;4.606;2024-03-07T06:46:34;259.33;;;58.42;;
43580;SDS011;29175;51.030;4.606;2024-03-07T06:49:00;196.27;;;47.25;;
43580;SDS011;29175;51.030;4.606;2024-03-07T06:51:26;278.35;;;58.67;;
43580;SDS011;29175;51.030;4.606;2024-03-07T06:53:53;298.85;;;62.83;;
43580;SDS011;29175;51.030;4.606;2024-03-07T06:56:19;253.13;;;61.53;;
43580;SDS011;29175;51.030;4.606;2024-03-07T06:58:44;283.15;;;60.67;;
43580;SDS011;29175;51.030;4.606;2024-03-07T07:01:11;271.48;;;60.75;;
43580;SDS011;29175;51.030;4.606;2024-03-07T07:03:41;276.90;;;64.28;;
43580;SDS011;29175;51.030;4.606;2024-03-07T07:08:37;292.38;;;62.50;;
43580;SDS011;29175;51.030;4.606;2024-03-07T07:11:03;264.48;;;60.40;;
43580;SDS011;29175;51.030;4.606;2024-03-07T07:13:29;243.77;;;58.17;;
43580;SDS011;29175;51.030;4.606;2024-03-07T07:15:56;218.25;;;54.05;;
43580;SDS011;29175;51.030;4.606;2024-03-07T07:18:22;265.60;;;61.47;;
43580;SDS011;29175;51.030;4.606;2024-03-07T07:20:50;242.90;;;59.15;;
43580;SDS011;29175;51.030;4.606;2024-03-07T07:23:19;244.43;;;59.33;;
43580;SDS011;29175;51.030;4.606;2024-03-07T07:25:46;238.70;;;60.53;;
43580;SDS011;29175;51.030;4.606;2024-03-07T07:28:12;250.73;;;56.47;;
43580;SDS011;29175;51.030;4.606;2024-03-07T07:30:38;250.65;;;57.80;;
43580;SDS011;29175;51.030;4.606;2024-03-07T07:33:04;231.60;;;57.30;;
43580;SDS011;29175;51.030;4.606;2024-03-07T07:35:30;196.25;;;52.28;;
43580;SDS011;29175;51.030;4.606;2024-03-07T07:37:56;194.73;;;51.55;;
43580;SDS011;29175;51.030;4.606;2024-03-07T07:40:23;191.90;;;50.47;;
43580;SDS011;29175;51.030;4.606;2024-03-07T07:42:52;189.75;;;51.65;;
43580;SDS011;29175;51.030;4.606;2024-03-07T07:45:19;196.07;;;52.13;;
43580;SDS011;29175;51.030;4.606;2024-03-07T07:47:51;207.52;;;53.10;;
43580;SDS011;29175;51.030;4.606;2024-03-07T07:50:18;193.50;;;52.47;;
43580;SDS011;29175;51.030;4.606;2024-03-07T07:55:19;193.85;;;51.95;;
43580;SDS011;29175;51.030;4.606;2024-03-07T08:00:24;177.82;;;48.08;;
43580;SDS011;29175;51.030;4.606;2024-03-07T08:02:54;169.40;;;50.95;;
43580;SDS011;29175;51.030;4.606;2024-03-07T08:05:29;169.82;;;47.35;;
43580;SDS011;29175;51.030;4.606;2024-03-07T08:07:57;166.93;;;46.67;;
43580;SDS011;29175;51.030;4.606;2024-03-07T08:10:33;158.20;;;46.22;;
43580;SDS011;29175;51.030;4.606;2024-03-07T08:13:00;149.77;;;43.72;;
43580;SDS011;29175;51.030;4.606;2024-03-07T08:15:29;142.23;;;44.50;;
43580;SDS011;29175;51.030;4.606;2024-03-07T08:17:56;154.88;;;48.22;;
43580;SDS011;29175;51.030;4.606;2024-03-07T08:20:22;171.55;;;50.45;;
43580;SDS011;29175;51.030;4.606;2024-03-07T08:22:50;170.43;;;46.17;;
43580;SDS011;29175;51.030;4.606;2024-03-07T08:25:19;161.88;;;46.15;;
43580;SDS011;29175;51.030;4.606;2024-03-07T08:27:48;162.80;;;49.20;;
43580;SDS011;29175;51.030;4.606;2024-03-07T08:30:15;169.10;;;48.50;;
43580;SDS011;29175;51.030;4.606;2024-03-07T08:32:42;165.75;;;47.88;;
43580;SDS011;29175;51.030;4.606;2024-03-07T08:35:13;159.43;;;46.72;;
43580;SDS011;29175;51.030;4.606;2024-03-07T08:37:43;174.27;;;48.40;;
43580;SDS011;29175;51.030;4.606;2024-03-07T08:42:42;150.63;;;46.03;;
43580;SDS011;29175;51.030;4.606;2024-03-07T08:45:08;137.82;;;42.15;;
43580;SDS011;29175;51.030;4.606;2024-03-07T08:47:36;128.85;;;42.50;;
43580;SDS011;29175;51.030;4.606;2024-03-07T08:50:03;121.18;;;39.72;;
43580;SDS011;29175;51.030;4.606;2024-03-07T08:52:33;128.82;;;41.97;;
43580;SDS011;29175;51.030;4.606;2024-03-07T08:55:03;119.72;;;40.55;;
43580;SDS011;29175;51.030;4.606;2024-03-07T08:57:30;116.60;;;40.75;;
43580;SDS011;29175;51.030;4.606;2024-03-07T08:59:57;118.78;;;41.45;;
43580;SDS011;29175;51.030;4.606;2024-03-07T09:02:23;127.35;;;42.33;;
43580;SDS011;29175;51.030;4.606;2024-03-07T09:04:49;124.53;;;40.90;;
43580;SDS011;29175;51.030;4.606;2024-03-07T09:07:15;117.88;;;41.90;;
43580;SDS011;29175;51.030;4.606;2024-03-07T09:09:41;117.90;;;42.33;;
43580;SDS011;29175;51.030;4.606;2024-03-07T09:12:08;109.13;;;39.47;;
43580;SDS011;29175;51.030;4.606;2024-03-07T09:14:34;101.60;;;38.38;;
43580;SDS011;29175;51.030;4.606;2024-03-07T09:17:01;104.50;;;37.35;;
43580;SDS011;29175;51.030;4.606;2024-03-07T09:19:27;97.15;;;35.90;;
43580;SDS011;29175;51.030;4.606;2024-03-07T09:21:53;100.05;;;34.58;;
43580;SDS011;29175;51.030;4.606;2024-03-07T09:24:20;91.32;;;35.72;;
43580;SDS011;29175;51.030;4.606;2024-03-07T09:26:52;84.75;;;33.00;;
43580;SDS011;29175;51.030;4.606;2024-03-07T09:29:18;85.82;;;33.97;;
43580;SDS011;29175;51.030;4.606;2024-03-07T09:31:45;90.60;;;35.10;;
43580;SDS011;29175;51.030;4.606;2024-03-07T09:34:11;83.00;;;34.50;;
43580;SDS011;29175;51.030;4.606;2024-03-07T09:36:41;85.45;;;34.08;;
43580;SDS011;29175;51.030;4.606;2024-03-07T09:39:07;81.25;;;32.83;;
43580;SDS011;29175;51.030;4.606;2024-03-07T09:41:34;81.22;;;31.42;;
43580;SDS011;29175;51.030;4.606;2024-03-07T09:44:00;83.70;;;31.95;;
43580;SDS011;29175;51.030;4.606;2024-03-07T09:46:27;83.63;;;31.83;;
43580;SDS011;29175;51.030;4.606;2024-03-07T09:48:53;79.25;;;32.53;;
43580;SDS011;29175;51.030;4.606;2024-03-07T09:51:20;88.50;;;33.25;;
43580;SDS011;29175;51.030;4.606;2024-03-07T09:53:50;73.97;;;30.45;;
43580;SDS011;29175;51.030;4.606;2024-03-07T09:56:19;76.55;;;31.58;;
43580;SDS011;29175;51.030;4.606;2024-03-07T09:58:50;81.25;;;30.30;;
43580;SDS011;29175;51.030;4.606;2024-03-07T10:01:20;71.95;;;29.23;;
43580;SDS011;29175;51.030;4.606;2024-03-07T10:03:47;73.05;;;30.13;;
43580;SDS011;29175;51.030;4.606;2024-03-07T10:06:13;86.28;;;30.83;;
43580;SDS011;29175;51.030;4.606;2024-03-07T10:08:42;77.50;;;30.90;;
43580;SDS011;29175;51.030;4.606;2024-03-07T10:11:08;69.30;;;30.40;;
43580;SDS011;29175;51.030;4.606;2024-03-07T10:13:34;71.93;;;31.08;;
43580;SDS011;29175;51.030;4.606;2024-03-07T10:16:01;73.72;;;29.42;;
43580;SDS011;29175;51.030;4.606;2024-03-07T10:18:29;85.05;;;31.30;;
43580;SDS011;29175;51.030;4.606;2024-03-07T10:20:54;76.22;;;30.75;;
43580;SDS011;29175;51.030;4.606;2024-03-07T10:23:20;76.32;;;31.05;;
43580;SDS011;29175;51.030;4.606;2024-03-07T10:25:47;73.88;;;31.70;;
43580;SDS011;29175;51.030;4.606;2024-03-07T10:28:13;73.10;;;31.08;;
43580;SDS011;29175;51.030;4.606;2024-03-07T10:30:44;79.15;;;30.80;;
43580;SDS011;29175;51.030;4.606;2024-03-07T10:33:10;71.70;;;29.95;;
43580;SDS011;29175;51.030;4.606;2024-03-07T10:35:38;64.85;;;27.98;;
43580;SDS011;29175;51.030;4.606;2024-03-07T10:38:03;76.35;;;30.73;;
43580;SDS011;29175;51.030;4.606;2024-03-07T10:40:32;72.47;;;28.25;;
43580;SDS011;29175;51.030;4.606;2024-03-07T10:43:02;79.50;;;30.75;;
43580;SDS011;29175;51.030;4.606;2024-03-07T10:45:35;72.55;;;30.73;;
43580;SDS011;29175;51.030;4.606;2024-03-07T10:48:13;73.32;;;28.80;;
43580;SDS011;29175;51.030;4.606;2024-03-07T10:53:45;68.78;;;27.85;;
43580;SDS011;29175;51.030;4.606;2024-03-07T10:59:19;77.55;;;30.42;;
43580;SDS011;29175;51.030;4.606;2024-03-07T11:01:49;74.57;;;29.35;;
43580;SDS011;29175;51.030;4.606;2024-03-07T11:04:30;68.30;;;28.42;;
43580;SDS011;29175;51.030;4.606;2024-03-07T11:06:57;71.75;;;28.65;;
43580;SDS011;29175;51.030;4.606;2024-03-07T11:09:24;68.90;;;28.85;;
43580;SDS011;29175;51.030;4.606;2024-03-07T11:11:55;70.38;;;29.20;;
43580;SDS011;29175;51.030;4.606;2024-03-07T11:14:22;65.80;;;28.05;;
43580;SDS011;29175;51.030;4.606;2024-03-07T11:16:50;67.82;;;28.38;;
43580;SDS011;29175;51.030;4.606;2024-03-07T11:19:28;69.97;;;29.88;;
43580;SDS011;29175;51.030;4.606;2024-03-07T11:21:57;75.53;;;28.45;;
43580;SDS011;29175;51.030;4.606;2024-03-07T11:24:26;73.90;;;29.95;;
43580;SDS011;29175;51.030;4.606;2024-03-07T11:26:57;68.57;;;28.33;;
43580;SDS011;29175;51.030;4.606;2024-03-07T11:29:42;68.03;;;28.30;;
43580;SDS011;29175;51.030;4.606;2024-03-07T11:32:15;63.83;;;28.10;;
43580;SDS011;29175;51.030;4.606;2024-03-07T11:34:42;68.03;;;25.83;;
43580;SDS011;29175;51.030;4.606;2024-03-07T11:39:48;67.85;;;28.42;;
43580;SDS011;29175;51.030;4.606;2024-03-07T11:44:51;72.43;;;29.30;;
43580;SDS011;29175;51.030;4.606;2024-03-07T11:47:17;68.32;;;28.20;;
43580;SDS011;29175;51.030;4.606;2024-03-07T11:49:46;73.88;;;30.38;;
43580;SDS011;29175;51.030;4.606;2024-03-07T11:52:15;74.97;;;29.67;;
43580;SDS011;29175;51.030;4.606;2024-03-07T11:54:42;70.90;;;30.33;;
43580;SDS011;29175;51.030;4.606;2024-03-07T11:57:20;67.85;;;29.80;;
43580;SDS011;29175;51.030;4.606;2024-03-07T11:59:57;64.32;;;28.95;;
43580;SDS011;29175;51.030;4.606;2024-03-07T12:02:26;70.38;;;29.90;;
43580;SDS011;29175;51.030;4.606;2024-03-07T12:04:54;69.38;;;29.38;;
43580;SDS011;29175;51.030;4.606;2024-03-07T12:07:20;64.32;;;28.23;;
43580;SDS011;29175;51.030;4.606;2024-03-07T12:09:49;66.70;;;28.30;;
43580;SDS011;29175;51.030;4.606;2024-03-07T12:12:21;71.32;;;29.88;;
43580;SDS011;29175;51.030;4.606;2024-03-07T12:14:48;70.57;;;31.02;;
43580;SDS011;29175;51.030;4.606;2024-03-07T12:17:16;65.72;;;29.38;;
43580;SDS011;29175;51.030;4.606;2024-03-07T12:19:42;70.10;;;29.23;;
43580;SDS011;29175;51.030;4.606;2024-03-07T12:22:09;66.10;;;28.48;;
43580;SDS011;29175;51.030;4.606;2024-03-07T12:24:39;67.50;;;27.67;;
43580;SDS011;29175;51.030;4.606;2024-03-07T12:27:06;75.40;;;30.08;;
43580;SDS011;29175;51.030;4.606;2024-03-07T12:29:37;66.35;;;29.23;;
43580;SDS011;29175;51.030;4.606;2024-03-07T12:32:07;61.92;;;28.38;;
43580;SDS011;29175;51.030;4.606;2024-03-07T12:34:36;68.78;;;29.27;;
43580;SDS011;29175;51.030;4.606;2024-03-07T12:37:06;66.80;;;27.60;;
43580;SDS011;29175;51.030;4.606;2024-03-07T12:39:33;67.45;;;28.92;;
43580;SDS011;29175;51.030;4.606;2024-03-07T12:42:12;72.55;;;29.73;;
43580;SDS011;29175;51.030;4.606;2024-03-07T12:44:43;64.85;;;27.67;;
43580;SDS011;29175;51.030;4.606;2024-03-07T12:47:12;70.25;;;28.38;;
43580;SDS011;29175;51.030;4.606;2024-03-07T12:49:42;68.07;;;28.88;;
43580;SDS011;29175;51.030;4.606;2024-03-07T12:52:08;69.15;;;28.83;;
43580;SDS011;29175;51.030;4.606;2024-03-07T12:54:35;64.57;;;27.67;;
43580;SDS011;29175;51.030;4.606;2024-03-07T12:57:12;63.88;;;28.10;;
43580;SDS011;29175;51.030;4.606;2024-03-07T12:59:38;64.95;;;26.42;;
43580;SDS011;29175;51.030;4.606;2024-03-07T13:02:07;74.10;;;27.90;;
43580;SDS011;29175;51.030;4.606;2024-03-07T13:04:33;69.82;;;27.45;;
43580;SDS011;29175;51.030;4.606;2024-03-07T13:06:59;61.22;;;26.52;;
43580;SDS011;29175;51.030;4.606;2024-03-07T13:09:29;63.85;;;28.00;;
43580;SDS011;29175;51.030;4.606;2024-03-07T13:11:56;63.33;;;28.23;;
43580;SDS011;29175;51.030;4.606;2024-03-07T13:14:25;72.15;;;27.77;;
43580;SDS011;29175;51.030;4.606;2024-03-07T13:16:55;63.10;;;26.67;;
43580;SDS011;29175;51.030;4.606;2024-03-07T13:19:21;60.70;;;25.67;;
43580;SDS011;29175;51.030;4.606;2024-03-07T13:21:48;60.40;;;25.85;;
43580;SDS011;29175;51.030;4.606;2024-03-07T13:24:14;61.58;;;24.83;;
43580;SDS011;29175;51.030;4.606;2024-03-07T13:26:41;59.70;;;23.77;;
43580;SDS011;29175;51.030;4.606;2024-03-07T13:29:08;62.60;;;26.95;;
43580;SDS011;29175;51.030;4.606;2024-03-07T13:31:35;61.25;;;24.70;;
43580;SDS011;29175;51.030;4.606;2024-03-07T13:34:01;56.25;;;26.17;;
43580;SDS011;29175;51.030;4.606;2024-03-07T13:36:27;57.28;;;26.48;;
43580;SDS011;29175;51.030;4.606;2024-03-07T13:38:54;58.60;;;25.67;;
43580;SDS011;29175;51.030;4.606;2024-03-07T13:41:22;53.37;;;26.57;;
43580;SDS011;29175;51.030;4.606;2024-03-07T13:43:50;56.80;;;25.75;;
43580;SDS011;29175;51.030;4.606;2024-03-07T13:46:16;60.83;;;26.25;;
43580;SDS011;29175;51.030;4.606;2024-03-07T13:48:43;55.85;;;25.85;;
43580;SDS011;29175;51.030;4.606;2024-03-07T13:51:10;59.50;;;27.02;;
43580;SDS011;29175;51.030;4.606;2024-03-07T13:53:41;60.85;;;26.73;;
43580;SDS011;29175;51.030;4.606;2024-03-07T13:56:39;58.35;;;26.58;;
43580;SDS011;29175;51.030;4.606;2024-03-07T14:08:12;54.25;;;24.27;;
43580;SDS011;29175;51.030;4.606;2024-03-07T14:30:55;58.55;;;22.05;;
43580;SDS011;29175;51.030;4.606;2024-03-07T14:33:33;51.47;;;22.30;;
43580;SDS011;29175;51.030;4.606;2024-03-07T14:36:14;52.85;;;22.25;;
43580;SDS011;29175;51.030;4.606;2024-03-07T14:38:51;49.95;;;22.23;;
43580;SDS011;29175;51.030;4.606;2024-03-07T14:41:20;55.03;;;23.33;;
43580;SDS011;29175;51.030;4.606;2024-03-07T14:43:51;51.67;;;23.25;;
43580;SDS011;29175;51.030;4.606;2024-03-07T14:46:18;46.65;;;22.85;;
43580;SDS011;29175;51.030;4.606;2024-03-07T14:48:45;49.90;;;22.42;;
43580;SDS011;29175;51.030;4.606;2024-03-07T14:51:12;45.33;;;20.48;;
43580;SDS011;29175;51.030;4.606;2024-03-07T14:53:41;48.20;;;21.23;;
43580;SDS011;29175;51.030;4.606;2024-03-07T14:56:08;45.00;;;20.55;;
43580;SDS011;29175;51.030;4.606;2024-03-07T14:58:35;46.88;;;21.80;;
43580;SDS011;29175;51.030;4.606;2024-03-07T15:01:01;47.42;;;20.58;;
43580;SDS011;29175;51.030;4.606;2024-03-07T15:03:27;46.50;;;20.85;;
43580;SDS011;29175;51.030;4.606;2024-03-07T15:05:56;47.33;;;20.90;;
43580;SDS011;29175;51.030;4.606;2024-03-07T15:08:24;42.83;;;19.13;;
43580;SDS011;29175;51.030;4.606;2024-03-07T15:10:58;47.08;;;20.48;;
43580;SDS011;29175;51.030;4.606;2024-03-07T15:13:33;42.72;;;19.60;;
43580;SDS011;29175;51.030;4.606;2024-03-07T15:15:59;40.35;;;19.98;;
43580;SDS011;29175;51.030;4.606;2024-03-07T15:18:26;40.38;;;18.63;;
43580;SDS011;29175;51.030;4.606;2024-03-07T15:20:53;50.85;;;18.83;;
43580;SDS011;29175;51.030;4.606;2024-03-07T15:23:18;45.08;;;18.95;;
43580;SDS011;29175;51.030;4.606;2024-03-07T15:25:45;47.30;;;19.55;;
43580;SDS011;29175;51.030;4.606;2024-03-07T15:28:11;45.28;;;18.58;;
43580;SDS011;29175;51.030;4.606;2024-03-07T15:30:37;49.90;;;20.38;;
43580;SDS011;29175;51.030;4.606;2024-03-07T15:33:04;48.80;;;18.20;;
43580;SDS011;29175;51.030;4.606;2024-03-07T15:35:30;49.83;;;19.88;;
43580;SDS011;29175;51.030;4.606;2024-03-07T15:37:57;51.75;;;19.15;;
43580;SDS011;29175;51.030;4.606;2024-03-07T15:40:23;42.53;;;18.05;;
43580;SDS011;29175;51.030;4.606;2024-03-07T15:42:49;46.90;;;18.70;;
43580;SDS011;29175;51.030;4.606;2024-03-07T15:45:19;47.15;;;18.55;;